Time;durP1;ratioP1;P1;durP2;ratioP2;P2;SDS_P1;SDS_P2;PMS_P1;PMS_P2;Temp;Humidity;BMP_temperature;BMP_pressure;BME280_temperature;BME280_humidity;BME280_pressure;Samples;Min_cycle;Max_cycle;Signal;HPM_P1;HPM_P2
2022/05/19 00:00:06;;;;;;;;;;;23.80;89.20;23.90;99825.00;;;;346827;28;92297;-89
2022/05/19 00:00:18;;;;;;;;;;;23.80;88.90;23.80;99821.00;;;;343338;28;83344;-89
2022/05/19 00:00:30;;;;;;;;;;;23.80;89.20;23.80;99823.00;;;;344871;28;92375;-89
2022/05/19 00:01:13;;;;;;;;;;;23.70;89.50;23.80;99819.00;;;;345647;28;90611;-89
2022/05/19 00:01:25;;;;;;;;;;;23.80;89.10;23.80;99819.00;;;;345818;28;83457;-90
2022/05/19 00:01:37;;;;;;;;;;;23.80;89.10;23.80;99817.00;;;;346941;28;91929;-89
2022/05/19 00:01:48;;;;;;;;;;;23.70;89.20;23.60;99822.00;;;;346029;28;83260;-89
2022/05/19 00:02:01;;;;;;;;;;;23.80;89.30;23.60;99820.00;;;;345563;28;90477;-89
2022/05/19 00:02:13;;;;;;;;;;;23.80;89.50;23.60;99823.00;;;;345844;28;83544;-89
2022/05/19 00:02:25;;;;;;;;;;;23.70;89.40;23.60;99819.00;;;;346880;28;91999;-89
2022/05/19 00:02:37;;;;;;;;;;;23.80;89.30;23.70;99826.00;;;;350234;27;83450;-89
2022/05/19 00:02:48;;;;;;;;;;;23.70;89.20;23.80;99824.00;;;;344155;28;91345;-90
2022/05/19 00:03:00;;;;;;;;;;;23.80;89.10;23.90;99818.00;;;;345958;28;83429;-89
2022/05/19 00:03:12;;;;;;;;;;;23.80;89.40;23.80;99819.00;;;;347027;28;91073;-89
2022/05/19 00:03:24;;;;;;;;;;;23.80;89.30;23.80;99813.00;;;;346011;28;82492;-88
2022/05/19 00:03:37;;;;;;;;;;;23.80;89.30;23.60;99820.00;;;;345211;28;90889;-90
2022/05/19 00:03:49;;;;;;;;;;;23.80;89.40;23.60;99821.00;;;;346091;28;82560;-89
2022/05/19 00:04:00;;;;;;;;;;;23.80;89.60;23.80;99822.00;;;;346467;28;91253;-89
2022/05/19 00:04:13;;;;;;;;;;;23.80;89.50;23.80;99811.00;;;;345990;28;83210;-90
2022/05/19 00:04:25;;;;;;;;;;;23.80;89.40;23.90;99813.00;;;;345587;28;91990;-89
2022/05/19 00:04:40;;;;;;;;;;;23.80;89.40;23.80;99811.00;;;;348747;27;83444;-89
2022/05/19 00:04:52;;;;;;;;;;;23.70;89.50;23.60;99818.00;;;;346825;28;91414;-89
2022/05/19 00:05:04;;;;;;;;;;;23.70;89.50;23.50;99819.00;;;;347356;28;83324;-89
2022/05/19 00:05:16;;;;;;;;;;;23.70;89.50;23.50;99825.00;;;;346864;28;90073;-89
2022/05/19 00:05:27;;;;;;;;;;;23.70;89.50;23.50;99812.00;;;;347377;28;82420;-89
2022/05/19 00:05:39;;;;;;;;;;;23.70;89.70;23.50;99804.00;;;;347070;28;90369;-89
2022/05/19 00:05:51;;;;;;;;;;;23.70;90.00;23.50;99811.00;;;;347452;28;83372;-89
2022/05/19 00:06:04;;;;;;;;;;;23.60;89.80;23.50;99818.00;;;;346649;27;90088;-89
2022/05/19 00:06:16;;;;;;;;;;;23.70;90.00;23.60;99813.00;;;;347452;28;83324;-89
2022/05/19 00:06:28;;;;;;;;;;;23.70;89.50;23.60;99812.00;;;;347905;27;91473;-89
2022/05/19 00:06:40;;;;;;;;;;;23.60;89.50;23.60;99813.00;;;;348846;27;82542;-90
2022/05/19 00:06:51;;;;;;;;;;;23.70;89.70;23.60;99818.00;;;;348280;27;92106;-89
2022/05/19 00:07:03;;;;;;;;;;;23.60;89.70;23.50;99821.00;;;;343268;28;82552;-89
2022/05/19 00:07:15;;;;;;;;;;;23.60;89.90;23.50;99818.00;;;;346989;28;90446;-89
2022/05/19 00:07:28;;;;;;;;;;;23.60;90.00;23.40;99824.00;;;;347536;27;83325;-89
2022/05/19 00:07:39;;;;;;;;;;;23.60;90.10;23.40;99807.00;;;;347011;28;90449;-89
2022/05/19 00:07:51;;;;;;;;;;;23.60;90.10;23.40;99820.00;;;;345914;28;83381;-89
2022/05/19 00:08:03;;;;;;;;;;;23.60;90.00;23.40;99813.00;;;;346931;28;88978;-90
2022/05/19 00:08:15;;;;;;;;;;;23.60;90.00;23.50;99818.00;;;;344700;28;83324;-89
2022/05/19 00:08:27;;;;;;;;;;;23.60;89.70;23.60;99810.00;;;;344218;28;90501;-89
2022/05/19 00:08:39;;;;;;;;;;;23.60;89.70;23.70;99811.00;;;;344571;28;83418;-89
2022/05/19 00:08:51;;;;;;;;;;;23.60;89.70;23.80;99823.00;;;;344147;28;91346;-89
2022/05/19 00:09:03;;;;;;;;;;;23.60;89.70;23.60;99810.00;;;;344336;28;83566;-89
2022/05/19 00:09:14;;;;;;;;;;;23.60;89.90;23.50;99818.00;;;;345612;28;90709;-89
2022/05/19 00:09:26;;;;;;;;;;;23.60;89.90;23.40;99810.00;;;;346282;28;88329;-90
2022/05/19 00:09:38;;;;;;;;;;;23.60;89.90;23.60;99807.00;;;;345325;28;91531;-89
2022/05/19 00:09:52;;;;;;;;;;;23.60;89.70;23.70;99806.00;;;;347491;28;83303;-89
2022/05/19 00:10:04;;;;;;;;;;;23.60;89.70;23.60;99817.00;;;;345589;28;88997;-89
2022/05/19 00:10:16;;;;;;;;;;;23.60;89.70;23.60;99811.00;;;;348821;27;82395;-89
2022/05/19 00:10:28;;;;;;;;;;;23.60;89.40;23.60;99817.00;;;;347030;28;88789;-89
2022/05/19 00:10:40;;;;;;;;;;;23.50;89.60;23.70;99813.00;;;;344593;28;83462;-90
2022/05/19 00:10:52;;;;;;;;;;;23.60;89.70;23.60;99819.00;;;;346915;28;92096;-88
2022/05/19 00:11:07;;;;;;;;;;;23.50;89.70;23.50;99812.00;;;;346057;28;83516;-89
2022/05/19 00:11:23;;;;;;;;;;;23.50;90.00;23.40;99810.00;;;;345680;28;88717;-89
2022/05/19 00:11:34;;;;;;;;;;;23.50;90.20;23.40;99802.00;;;;347344;28;83401;-89
2022/05/19 00:11:46;;;;;;;;;;;23.50;90.20;23.50;99820.00;;;;345582;28;91333;-89
2022/05/19 00:11:59;;;;;;;;;;;23.50;90.10;23.60;99807.00;;;;346014;28;83293;-89
2022/05/19 00:12:14;;;;;;;;;;;23.50;90.00;23.50;99807.00;;;;345592;28;90304;-89
2022/05/19 00:12:26;;;;;;;;;;;23.50;90.00;23.40;99821.00;;;;347735;27;83127;-89
2022/05/19 00:12:38;;;;;;;;;;;23.50;90.20;23.40;99810.00;;;;346642;28;87908;-89
2022/05/19 00:12:50;;;;;;;;;;;23.50;90.20;23.50;99808.00;;;;347159;28;83506;-89
2022/05/19 00:13:02;;;;;;;;;;;23.50;90.10;23.40;99811.00;;;;345376;28;92413;-90
2022/05/19 00:13:14;;;;;;;;;;;23.50;90.10;23.50;99811.00;;;;347451;28;82459;-89
2022/05/19 00:13:26;;;;;;;;;;;23.50;89.90;23.50;99805.00;;;;345392;28;90651;-89
2022/05/19 00:13:38;;;;;;;;;;;23.50;90.00;23.50;99807.00;;;;345985;28;83452;-89
2022/05/19 00:13:49;;;;;;;;;;;23.50;90.20;23.50;99811.00;;;;346957;28;91312;-89
2022/05/19 00:14:01;;;;;;;;;;;23.50;90.10;23.50;99804.00;;;;347314;28;82366;-89
2022/05/19 00:14:13;;;;;;;;;;;23.50;90.00;23.50;99813.00;;;;346916;28;90154;-89
2022/05/19 00:14:25;;;;;;;;;;;23.50;90.00;23.40;99810.00;;;;346060;28;83387;-88
2022/05/19 00:14:37;;;;;;;;;;;23.50;90.00;23.40;99817.00;;;;344177;28;89803;-88
2022/05/19 00:14:49;;;;;;;;;;;23.50;90.20;23.40;99810.00;;;;346042;28;83398;-89
2022/05/19 00:15:01;;;;;;;;;;;23.40;90.10;23.30;99813.00;;;;347083;28;88428;-88
2022/05/19 00:15:13;;;;;;;;;;;23.50;90.10;23.30;99803.00;;;;347517;28;83495;-89
2022/05/19 00:15:25;;;;;;;;;;;23.50;90.10;23.30;99810.00;;;;346176;27;91898;-89
2022/05/19 00:15:36;;;;;;;;;;;23.50;90.20;23.40;99818.00;;;;347301;28;83456;-88
2022/05/19 00:15:48;;;;;;;;;;;23.50;90.10;23.40;99821.00;;;;346998;28;90824;-89
2022/05/19 00:16:00;;;;;;;;;;;23.50;90.10;23.50;99806.00;;;;345970;28;83475;-89
2022/05/19 00:16:12;;;;;;;;;;;23.40;90.00;23.50;99797.00;;;;345594;28;91358;-89
2022/05/19 00:16:24;;;;;;;;;;;23.50;89.90;23.50;99800.00;;;;344703;28;83444;-88
2022/05/19 00:16:36;;;;;;;;;;;23.40;89.60;23.40;99811.00;;;;348448;27;90176;-89
2022/05/19 00:16:48;;;;;;;;;;;23.40;90.00;23.50;99807.00;;;;347429;28;82490;-89
2022/05/19 00:17:00;;;;;;;;;;;23.40;89.80;23.50;99808.00;;;;348404;27;90088;-89
2022/05/19 00:17:12;;;;;;;;;;;23.40;90.00;23.40;99807.00;;;;350185;27;83460;-89
2022/05/19 00:17:24;;;;;;;;;;;23.40;90.10;23.30;99809.00;;;;347006;27;90787;-88
2022/05/19 00:17:36;;;;;;;;;;;23.50;90.20;23.30;99811.00;;;;350246;27;83488;-88
2022/05/19 00:17:48;;;;;;;;;;;23.40;90.20;23.30;99802.00;;;;347010;28;91193;-89
2022/05/19 00:18:00;;;;;;;;;;;23.40;90.20;23.30;99801.00;;;;345924;28;83355;-89
2022/05/19 00:18:12;;;;;;;;;;;23.40;90.20;23.50;99806.00;;;;344232;28;91260;-89
2022/05/19 00:18:24;;;;;;;;;;;23.40;90.10;23.30;99808.00;;;;345600;28;83346;-89
2022/05/19 00:18:36;;;;;;;;;;;23.50;90.10;23.30;99801.00;;;;344128;28;91369;-89
2022/05/19 00:18:48;;;;;;;;;;;23.50;90.20;23.40;99801.00;;;;344287;28;83393;-89
2022/05/19 00:18:59;;;;;;;;;;;23.40;90.10;23.30;99817.00;;;;346410;28;92877;-88
2022/05/19 00:19:12;;;;;;;;;;;23.40;90.20;23.10;99801.00;;;;347430;28;82572;-89
2022/05/19 00:19:24;;;;;;;;;;;23.40;90.40;23.10;99799.00;;;;346789;28;91294;-89
2022/05/19 00:19:36;;;;;;;;;;;23.30;90.50;23.00;99802.00;;;;346036;28;83499;-89
2022/05/19 00:19:48;;;;;;;;;;;23.30;90.50;23.20;99801.00;;;;346912;28;91482;-89
2022/05/19 00:20:00;;;;;;;;;;;23.30;90.40;23.30;99802.00;;;;347213;28;83384;-89
2022/05/19 00:20:12;;;;;;;;;;;23.40;90.40;23.40;99808.00;;;;345540;28;90879;-89
2022/05/19 00:20:24;;;;;;;;;;;23.40;90.60;23.40;99804.00;;;;346071;28;82575;-89
2022/05/19 00:20:36;;;;;;;;;;;23.30;90.30;23.40;99810.00;;;;346938;28;90252;-88
2022/05/19 00:20:48;;;;;;;;;;;23.40;90.50;23.40;99800.00;;;;345810;28;82527;-89
2022/05/19 00:21:00;;;;;;;;;;;23.30;90.30;23.20;99811.00;;;;347007;28;90026;-88
2022/05/19 00:21:11;;;;;;;;;;;23.40;90.40;23.20;99799.00;;;;344645;28;83583;-89
2022/05/19 00:21:23;;;;;;;;;;;23.40;90.40;23.40;99801.00;;;;348301;27;91218;-89
2022/05/19 00:21:35;;;;;;;;;;;23.40;90.20;23.40;99800.00;;;;346886;28;83288;-88
2022/05/19 00:21:47;;;;;;;;;;;23.40;90.20;23.30;99811.00;;;;346952;28;90118;-89
2022/05/19 00:21:59;;;;;;;;;;;23.30;90.20;23.30;99803.00;;;;348641;27;83268;-89
2022/05/19 00:22:12;;;;;;;;;;;23.40;90.30;23.30;99810.00;;;;345520;28;90479;-88
2022/05/19 00:22:23;;;;;;;;;;;23.30;90.30;23.30;99807.00;;;;348848;27;83440;-89
2022/05/19 00:22:35;;;;;;;;;;;23.40;90.30;23.30;99809.00;;;;346979;28;91230;-88
2022/05/19 00:22:47;;;;;;;;;;;23.30;90.30;23.30;99811.00;;;;345775;28;83062;-88
2022/05/19 00:22:59;;;;;;;;;;;23.30;90.30;23.20;99802.00;;;;345465;28;89059;-88
2022/05/19 00:23:11;;;;;;;;;;;23.30;90.40;23.10;99806.00;;;;347313;28;82437;-88
2022/05/19 00:23:22;;;;;;;;;;;23.30;90.40;23.00;99810.00;;;;346746;28;90362;-89
2022/05/19 00:23:34;;;;;;;;;;;23.30;90.60;23.00;99809.00;;;;348828;27;82407;-89
2022/05/19 00:23:46;;;;;;;;;;;23.30;90.60;23.00;99811.00;;;;347018;28;87937;-89
2022/05/19 00:23:58;;;;;;;;;;;23.30;90.60;23.10;99800.00;;;;347403;28;83346;-89
2022/05/19 00:24:10;;;;;;;;;;;23.30;90.50;23.20;99804.00;;;;348330;27;87742;-88
2022/05/19 00:24:22;;;;;;;;;;;23.30;90.50;23.10;99802.00;;;;347114;28;83453;-89
2022/05/19 00:24:34;;;;;;;;;;;23.30;90.60;23.10;99801.00;;;;345929;28;91363;-88
2022/05/19 00:24:46;;;;;;;;;;;23.30;90.50;23.00;99802.00;;;;345785;28;83372;-89
2022/05/19 00:24:58;;;;;;;;;;;23.30;90.40;23.10;99798.00;;;;344805;28;91844;-89
2022/05/19 00:25:10;;;;;;;;;;;23.20;90.40;23.20;99806.00;;;;344567;28;83344;-89
2022/05/19 00:25:22;;;;;;;;;;;23.20;90.40;23.10;99806.00;;;;346984;28;91372;-88
2022/05/19 00:25:33;;;;;;;;;;;23.20;90.50;23.10;99805.00;;;;348512;27;83399;-89
2022/05/19 00:25:45;;;;;;;;;;;23.20;90.50;23.10;99803.00;;;;344088;28;90543;-89
2022/05/19 00:25:57;;;;;;;;;;;23.20;90.60;23.00;99803.00;;;;348802;27;83155;-88
2022/05/19 00:26:09;;;;;;;;;;;23.20;90.60;23.00;99796.00;;;;344087;28;91378;-89
2022/05/19 00:26:21;;;;;;;;;;;23.20;90.60;23.10;99801.00;;;;346010;28;83229;-89
2022/05/19 00:26:32;;;;;;;;;;;23.20;90.50;23.20;99801.00;;;;348352;27;91698;-89
2022/05/19 00:26:44;;;;;;;;;;;23.20;90.50;23.20;99802.00;;;;348767;27;82332;-89
2022/05/19 00:26:57;;;;;;;;;;;23.20;90.50;23.20;99803.00;;;;345519;28;92617;-89
2022/05/19 00:27:08;;;;;;;;;;;23.20;90.60;23.10;99804.00;;;;347500;28;83359;-88
2022/05/19 00:27:20;;;;;;;;;;;23.20;90.60;23.10;99797.00;;;;346902;28;88683;-89
2022/05/19 00:27:32;;;;;;;;;;;23.20;90.50;23.10;99805.00;;;;346993;28;82578;-89
2022/05/19 00:27:44;;;;;;;;;;;23.20;90.60;23.10;99795.00;;;;346787;28;91546;-88
2022/05/19 00:27:56;;;;;;;;;;;23.20;90.50;23.00;99809.00;;;;347729;27;83427;-88
2022/05/19 00:28:08;;;;;;;;;;;23.20;90.60;23.00;99800.00;;;;346890;28;90328;-87
2022/05/19 00:28:19;;;;;;;;;;;23.20;90.60;22.90;99806.00;;;;343343;28;82364;-89
2022/05/19 00:28:32;;;;;;;;;;;23.20;90.70;22.90;99805.00;;;;346943;28;90257;-89
2022/05/19 00:28:44;;;;;;;;;;;23.20;90.80;22.90;99803.00;;;;348768;27;83444;-88
2022/05/19 00:28:55;;;;;;;;;;;23.20;90.80;23.00;99805.00;;;;348267;27;89655;-89
2022/05/19 00:29:07;;;;;;;;;;;23.20;90.80;23.00;99800.00;;;;347130;28;82300;-89
2022/05/19 00:29:19;;;;;;;;;;;23.10;90.60;23.00;99804.00;;;;346737;28;91522;-89
2022/05/19 00:29:31;;;;;;;;;;;23.10;90.50;23.00;99803.00;;;;347351;27;83567;-89
2022/05/19 00:29:42;;;;;;;;;;;23.10;90.50;23.00;99811.00;;;;345604;28;90383;-89
2022/05/19 00:29:54;;;;;;;;;;;23.10;90.60;22.90;99805.00;;;;347413;28;82520;-89
2022/05/19 00:30:06;;;;;;;;;;;23.10;90.80;22.80;99802.00;;;;346771;28;91582;-89
2022/05/19 00:30:18;;;;;;;;;;;23.10;90.90;22.80;99800.00;;;;346069;28;82473;-88
2022/05/19 00:30:30;;;;;;;;;;;23.10;90.80;22.90;99797.00;;;;346455;28;88781;-88
2022/05/19 00:30:42;;;;;;;;;;;23.10;90.80;22.90;99797.00;;;;346677;27;83424;-88
2022/05/19 00:30:54;;;;;;;;;;;23.10;90.90;22.90;99807.00;;;;345506;28;93317;-89
2022/05/19 00:31:06;;;;;;;;;;;23.10;90.90;22.90;99809.00;;;;343179;28;83598;-89
2022/05/19 00:31:17;;;;;;;;;;;23.10;90.90;22.90;99803.00;;;;345489;28;91762;-89
2022/05/19 00:31:31;;;;;;;;;;;23.00;90.90;22.90;99804.00;;;;345918;28;83162;-89
2022/05/19 00:31:43;;;;;;;;;;;23.00;90.90;22.90;99805.00;;;;345584;28;92148;-87
2022/05/19 00:31:55;;;;;;;;;;;23.00;90.80;23.00;99802.00;;;;345695;28;83580;-89
2022/05/19 00:32:08;;;;;;;;;;;23.00;90.60;23.00;99803.00;;;;345581;28;90334;-89
2022/05/19 00:32:20;;;;;;;;;;;23.00;91.10;23.00;99802.00;;;;347374;28;83375;-88
2022/05/19 00:32:31;;;;;;;;;;;23.00;90.60;23.00;99796.00;;;;348214;27;91593;-89
2022/05/19 00:32:43;;;;;;;;;;;23.00;90.80;23.00;99801.00;;;;347336;27;83498;-89
2022/05/19 00:32:55;;;;;;;;;;;23.00;91.00;23.00;99808.00;;;;346933;28;92396;-88
2022/05/19 00:33:08;;;;;;;;;;;23.00;90.80;23.00;99803.00;;;;347348;28;82535;-89
2022/05/19 00:33:20;;;;;;;;;;;23.00;90.70;23.20;99806.00;;;;349707;27;91615;-89
2022/05/19 00:33:33;;;;;;;;;;;23.00;90.70;23.30;99809.00;;;;346995;28;83584;-88
2022/05/19 00:33:45;;;;;;;;;;;23.10;90.80;23.30;99798.00;;;;349706;27;90808;-89
2022/05/19 00:33:56;;;;;;;;;;;23.10;91.00;23.20;99805.00;;;;347225;28;83557;-89
2022/05/19 00:34:08;;;;;;;;;;;23.10;90.80;23.10;99798.00;;;;348379;27;88677;-88
2022/05/19 00:34:20;;;;;;;;;;;23.10;90.80;23.00;99803.00;;;;345999;28;83356;-88
2022/05/19 00:34:32;;;;;;;;;;;23.10;90.90;23.10;99800.00;;;;346939;28;91032;-88
2022/05/19 00:34:44;;;;;;;;;;;23.10;90.80;23.00;99803.00;;;;347425;27;83521;-88
2022/05/19 00:34:55;;;;;;;;;;;23.10;90.80;23.00;99806.00;;;;344065;28;92215;-89
2022/05/19 00:35:08;;;;;;;;;;;23.10;90.80;23.10;99803.00;;;;347334;28;83448;-89
2022/05/19 00:35:20;;;;;;;;;;;23.00;90.60;23.00;99806.00;;;;346917;28;91484;-88
2022/05/19 00:35:31;;;;;;;;;;;23.10;90.70;23.00;99803.00;;;;348359;27;83338;-88
2022/05/19 00:35:43;;;;;;;;;;;23.00;90.70;23.00;99807.00;;;;344325;28;88790;-88
2022/05/19 00:35:55;;;;;;;;;;;23.10;90.90;23.00;99804.00;;;;347281;28;83389;-89
2022/05/19 00:36:08;;;;;;;;;;;23.00;90.70;23.00;99806.00;;;;347045;28;88163;-89
2022/05/19 00:36:20;;;;;;;;;;;23.00;90.90;23.00;99805.00;;;;347414;28;83299;-88
2022/05/19 00:36:32;;;;;;;;;;;23.00;90.80;23.00;99806.00;;;;345814;28;87711;-89
2022/05/19 00:36:44;;;;;;;;;;;23.00;90.60;23.00;99799.00;;;;347460;27;83589;-89
2022/05/19 00:36:57;;;;;;;;;;;23.00;90.60;23.10;99803.00;;;;345462;28;92286;-89
2022/05/19 00:37:09;;;;;;;;;;;23.00;90.60;23.10;99805.00;;;;347411;28;83293;-89
2022/05/19 00:37:21;;;;;;;;;;;23.00;90.60;23.00;99812.00;;;;348246;27;92404;-89
2022/05/19 00:37:32;;;;;;;;;;;23.00;90.90;23.00;99801.00;;;;347222;28;83421;-89
2022/05/19 00:37:44;;;;;;;;;;;23.00;90.80;23.00;99806.00;;;;347033;28;90533;-89
2022/05/19 00:37:56;;;;;;;;;;;23.00;90.70;23.00;99809.00;;;;345955;28;83189;-88
2022/05/19 00:38:08;;;;;;;;;;;23.00;90.70;23.00;99817.00;;;;345454;28;91631;-88
2022/05/19 00:38:20;;;;;;;;;;;23.00;90.80;23.00;99813.00;;;;346136;28;83111;-88
2022/05/19 00:38:31;;;;;;;;;;;23.00;90.80;23.00;99812.00;;;;345478;28;92064;-89
2022/05/19 00:38:43;;;;;;;;;;;23.00;90.90;23.00;99806.00;;;;348842;27;82328;-89
2022/05/19 00:38:55;;;;;;;;;;;23.00;90.90;23.00;99807.00;;;;346609;28;90710;-89
2022/05/19 00:39:10;;;;;;;;;;;23.00;90.90;23.10;99807.00;;;;345988;28;83481;-88
2022/05/19 00:39:22;;;;;;;;;;;23.00;90.80;23.10;99804.00;;;;346766;27;91189;-89
2022/05/19 00:39:34;;;;;;;;;;;23.00;90.80;23.10;99802.00;;;;349974;27;82572;-89
2022/05/19 00:39:46;;;;;;;;;;;23.00;90.80;22.90;99818.00;;;;345420;28;91850;-89
2022/05/19 00:39:58;;;;;;;;;;;23.00;90.90;22.90;99806.00;;;;345856;28;83401;-88
2022/05/19 00:40:12;;;;;;;;;;;23.00;91.00;22.90;99810.00;;;;345513;28;91540;-88
2022/05/19 00:40:24;;;;;;;;;;;23.00;91.10;23.00;99803.00;;;;347327;28;83302;-88
2022/05/19 00:40:36;;;;;;;;;;;23.00;91.10;23.10;99810.00;;;;348388;27;90261;-89
2022/05/19 00:40:50;;;;;;;;;;;23.00;91.10;23.10;99806.00;;;;347373;28;83404;-88
2022/05/19 00:41:02;;;;;;;;;;;23.00;91.10;23.20;99807.00;;;;345512;28;90466;-88
2022/05/19 00:41:14;;;;;;;;;;;23.00;91.30;23.10;99809.00;;;;348812;27;83381;-89
2022/05/19 00:41:26;;;;;;;;;;;23.00;91.00;23.00;99811.00;;;;348227;27;91391;-89
2022/05/19 00:41:44;;;;;;;;;;;23.00;91.00;23.00;99818.00;;;;344499;28;83463;-89
2022/05/19 00:42:44;;;;;;;;;;;23.00;91.10;23.00;99817.00;;;;346246;28;83192;-88
2022/05/19 00:42:56;;;;;;;;;;;23.00;91.20;23.00;99812.00;;;;348249;27;89230;-89
2022/05/19 00:43:08;;;;;;;;;;;23.00;91.00;23.00;99808.00;;;;347332;28;83236;-89
2022/05/19 00:43:27;;;;;;;;;;;23.00;91.00;23.00;99807.00;;;;346934;28;90484;-88
2022/05/19 00:43:41;;;;;;;;;;;23.00;91.40;23.00;99812.00;;;;345977;28;83287;-89
2022/05/19 00:44:01;;;;;;;;;;;23.00;91.20;23.10;99806.00;;;;346743;28;92687;-89
2022/05/19 00:44:13;;;;;;;;;;;23.00;91.10;23.20;99807.00;;;;345991;28;83346;-89
2022/05/19 00:44:25;;;;;;;;;;;23.00;91.00;23.10;99817.00;;;;345611;28;91314;-88
2022/05/19 00:44:37;;;;;;;;;;;23.00;91.00;23.10;99803.00;;;;344641;28;83305;-88
2022/05/19 00:44:48;;;;;;;;;;;22.90;90.90;23.10;99819.00;;;;346930;28;88774;-89
2022/05/19 00:45:00;;;;;;;;;;;23.00;90.80;23.10;99806.00;;;;347501;28;82361;-89
2022/05/19 00:45:20;;;;;;;;;;;23.00;91.10;23.10;99809.00;;;;344245;28;90231;-89
2022/05/19 00:45:51;;;;;;;;;;;23.00;91.00;23.00;99819.00;;;;346960;28;84333;-89
2022/05/19 00:46:26;;;;;;;;;;;23.00;90.90;23.00;99817.00;;;;344074;28;92202;-89
2022/05/19 00:46:43;;;;;;;;;;;23.00;90.80;23.10;99817.00;;;;344596;28;83390;-89
2022/05/19 00:46:55;;;;;;;;;;;23.00;90.90;23.00;99823.00;;;;343850;28;88532;-89
2022/05/19 00:47:08;;;;;;;;;;;23.00;91.10;22.90;99813.00;;;;347425;28;83359;-89
2022/05/19 00:47:21;;;;;;;;;;;23.00;91.00;22.90;99819.00;;;;345552;28;90248;-88
2022/05/19 00:47:39;;;;;;;;;;;23.00;91.10;22.80;99818.00;;;;348731;27;83413;-89
2022/05/19 00:47:50;;;;;;;;;;;23.00;91.10;22.90;99827.00;;;;348373;27;91528;-89
2022/05/19 00:48:31;;;;;;;;;;;23.00;91.10;23.00;99828.00;;;;347242;28;83457;-89
2022/05/19 00:48:57;;;;;;;;;;;23.00;91.10;23.20;99820.00;;;;343042;28;91566;-88
2022/05/19 00:49:18;;;;;;;;;;;23.00;91.00;23.20;99809.00;;;;347268;28;82363;-89
2022/05/19 00:49:37;;;;;;;;;;;23.00;91.00;23.10;99809.00;;;;346710;27;90355;-88
2022/05/19 00:49:49;;;;;;;;;;;23.00;90.90;23.00;99819.00;;;;346003;28;83447;-88
2022/05/19 00:50:02;;;;;;;;;;;23.00;91.10;22.90;99821.00;;;;345340;28;93589;-89
2022/05/19 00:50:28;;;;;;;;;;;23.00;91.10;22.80;99812.00;;;;345974;28;83235;-89
2022/05/19 00:50:46;;;;;;;;;;;23.00;91.30;22.90;99818.00;;;;343982;28;92465;-88
2022/05/19 00:51:01;;;;;;;;;;;22.90;91.10;22.80;99820.00;;;;344623;28;82366;-89
2022/05/19 00:51:12;;;;;;;;;;;22.90;91.20;22.80;99809.00;;;;347031;28;87860;-89
2022/05/19 00:52:15;;;;;;;;;;;22.90;91.10;22.80;99813.00;;;;347448;27;83387;-88
2022/05/19 00:52:34;;;;;;;;;;;22.90;91.10;22.90;99823.00;;;;339644;28;91487;-88
2022/05/19 00:52:45;;;;;;;;;;;22.90;91.20;22.90;99820.00;;;;339067;28;83463;-88
2022/05/19 00:53:01;;;;;;;;;;;22.90;91.20;22.90;99818.00;;;;341169;28;91391;-89
2022/05/19 00:53:21;;;;;;;;;;;22.90;91.20;22.90;99813.00;;;;340525;28;82520;-89
2022/05/19 00:53:38;;;;;;;;;;;22.90;91.10;22.80;99823.00;;;;339934;28;92256;-88
2022/05/19 00:53:52;;;;;;;;;;;22.90;91.20;22.80;99813.00;;;;341922;28;83306;-88
2022/05/19 00:54:04;;;;;;;;;;;22.90;91.10;22.70;99819.00;;;;339960;28;91359;-89
2022/05/19 00:54:21;;;;;;;;;;;22.90;91.20;22.70;99812.00;;;;343202;28;83597;-89
2022/05/19 00:54:35;;;;;;;;;;;22.90;91.30;22.70;99817.00;;;;341863;28;90266;-89
2022/05/19 00:54:50;;;;;;;;;;;22.80;91.30;22.60;99828.00;;;;340418;28;82432;-88
2022/05/19 00:55:07;;;;;;;;;;;22.80;91.30;22.60;99818.00;;;;342486;28;91552;-88
2022/05/19 00:55:29;;;;;;;;;;;22.80;91.40;22.70;99818.00;;;;343157;28;82780;-89
2022/05/19 00:55:42;;;;;;;;;;;22.80;91.30;22.80;99820.00;;;;341410;28;90500;-88
2022/05/19 00:55:55;;;;;;;;;;;22.80;91.40;22.80;99819.00;;;;343274;28;82244;-88
2022/05/19 00:56:34;;;;;;;;;;;22.80;91.30;22.70;99821.00;;;;342400;28;92294;-89
2022/05/19 00:57:19;;;;;;;;;;;22.80;91.50;22.70;99820.00;;;;332433;29;83505;-89
2022/05/19 00:57:31;;;;;;;;;;;22.80;91.40;22.80;99813.00;;;;338242;28;87737;-88
2022/05/19 00:57:45;;;;;;;;;;;22.80;91.50;22.80;99826.00;;;;341658;28;82712;-89
2022/05/19 00:58:10;;;;;;;;;;;22.80;91.30;23.00;99826.00;;;;341967;28;91477;-89
2022/05/19 00:58:25;;;;;;;;;;;22.80;91.30;22.90;99830.00;;;;343192;28;83249;-88
2022/05/19 00:59:00;;;;;;;;;;;22.80;91.50;22.70;99822.00;;;;341413;28;92179;-88
2022/05/19 00:59:17;;;;;;;;;;;22.80;91.50;22.90;99828.00;;;;341893;28;82439;-89
2022/05/19 00:59:30;;;;;;;;;;;22.80;91.30;22.90;99826.00;;;;340003;28;89171;-88
2022/05/19 00:59:44;;;;;;;;;;;22.80;91.20;22.90;99825.00;;;;340446;28;83499;-89
2022/05/19 00:59:58;;;;;;;;;;;22.80;91.30;22.80;99819.00;;;;341355;28;92027;-88
2022/05/19 01:00:12;;;;;;;;;;;22.80;91.30;22.70;99825.00;;;;339044;28;83431;-89
2022/05/19 01:00:24;;;;;;;;;;;22.80;91.40;22.60;99828.00;;;;342090;28;90600;-88
2022/05/19 01:00:36;;;;;;;;;;;22.80;91.50;22.60;99828.00;;;;340410;28;83397;-89
2022/05/19 01:00:48;;;;;;;;;;;22.80;91.50;22.60;99829.00;;;;342753;28;90727;-89
2022/05/19 01:01:00;;;;;;;;;;;22.70;91.40;22.60;99825.00;;;;344078;28;83636;-88
2022/05/19 01:01:12;;;;;;;;;;;22.80;91.50;22.60;99828.00;;;;342749;28;91765;-88
2022/05/19 01:01:24;;;;;;;;;;;22.70;91.60;22.60;99827.00;;;;341701;28;82357;-88
2022/05/19 01:01:38;;;;;;;;;;;22.70;91.60;22.60;99827.00;;;;340137;28;91279;-89
2022/05/19 01:01:50;;;;;;;;;;;22.70;91.60;22.60;99830.00;;;;343145;28;83988;-89
2022/05/19 01:02:02;;;;;;;;;;;22.70;91.50;22.70;99823.00;;;;339942;28;92939;-89
2022/05/19 01:02:15;;;;;;;;;;;22.70;91.50;22.60;99826.00;;;;343132;28;83406;-89
2022/05/19 01:02:30;;;;;;;;;;;22.70;91.50;22.70;99823.00;;;;342757;28;90421;-88
2022/05/19 01:02:45;;;;;;;;;;;22.70;91.60;22.80;99829.00;;;;341449;28;83359;-88
2022/05/19 01:02:58;;;;;;;;;;;22.70;91.70;22.70;99825.00;;;;342838;28;88908;-88
2022/05/19 01:03:10;;;;;;;;;;;22.70;91.70;22.70;99825.00;;;;341846;28;83562;-88
2022/05/19 01:03:22;;;;;;;;;;;22.70;91.70;22.60;99823.00;;;;342429;28;90430;-88
2022/05/19 01:03:38;;;;;;;;;;;22.70;92.00;22.70;99826.00;;;;339592;28;83543;-88
2022/05/19 01:03:56;;;;;;;;;;;22.70;91.70;22.70;99826.00;;;;334498;29;89408;-88
2022/05/19 01:04:14;;;;;;;;;;;22.70;91.70;22.60;99826.00;;;;334913;29;83360;-88
2022/05/19 01:04:29;;;;;;;;;;;22.70;91.70;22.70;99825.00;;;;333292;29;92539;-89
2022/05/19 01:04:47;;;;;;;;;;;22.70;91.70;22.70;99830.00;;;;336188;29;84285;-89
2022/05/19 01:05:09;;;;;;;;;;;22.70;91.70;22.70;99829.00;;;;335953;28;90914;-88
2022/05/19 01:05:38;;;;;;;;;;;22.70;91.70;22.60;99829.00;;;;335073;29;82280;-88
2022/05/19 01:05:52;;;;;;;;;;;22.70;91.70;22.70;99829.00;;;;336973;28;91396;-88
2022/05/19 01:06:09;;;;;;;;;;;22.60;91.60;22.70;99825.00;;;;333742;29;83217;-88
2022/05/19 01:06:22;;;;;;;;;;;22.60;91.50;22.60;99829.00;;;;333412;29;89263;-89
2022/05/19 01:06:33;;;;;;;;;;;22.70;91.60;22.60;99826.00;;;;335968;29;83498;-88
2022/05/19 01:06:46;;;;;;;;;;;22.60;91.70;22.60;99822.00;;;;334399;29;91019;-89
2022/05/19 01:06:59;;;;;;;;;;;22.60;91.70;22.60;99834.00;;;;334317;29;83209;-88
2022/05/19 01:07:13;;;;;;;;;;;22.60;91.80;22.50;99829.00;;;;338442;28;91656;-89
2022/05/19 01:07:37;;;;;;;;;;;22.60;91.80;22.50;99827.00;;;;341780;28;83408;-88
2022/05/19 01:07:55;;;;;;;;;;;22.60;91.80;22.50;99833.00;;;;341456;28;91686;-88
2022/05/19 01:08:32;;;;;;;;;;;22.60;91.80;22.60;99829.00;;;;343118;28;82482;-89
2022/05/19 01:08:51;;;;;;;;;;;22.60;91.80;22.60;99827.00;;;;337217;28;91470;-89
2022/05/19 01:09:06;;;;;;;;;;;22.60;91.70;22.70;99825.00;;;;336291;28;83359;-89
2022/05/19 01:09:18;;;;;;;;;;;22.60;91.70;22.70;99821.00;;;;335941;28;91190;-88